• Join FlightAware (Why Join?)
  • Login
  • US Flag GB Flag 
02:25 EST


 

Airport Tracker/Info


-or-


 

Live Flight TrackerFlight Track Log ✈ JBU56 ✈ 02-Dec-2013 ✈ KIAD - KBOS

Flight Track Log - Related Links

Times and Time Zones

All times are in EST time to prevent confusion due to time zone crossing. See the JBU56 flight status page for this flight to view local times or setup timezone preferences in your user account.

Time Position Orientation Groundspeed Altitude Reporting Facility
EST Latitude Longitude Course Direction KTS MPH feet Rate Location/Type
10:14 38.9667 -77.5167 90° East 177 204 1,800  Level Potomac TRACON
10:15 39.0167 -77.5500 333° Northwest 220 253 3,700 2,460 Climbing Potomac TRACON
10:16 39.1264 -77.1528 78° East  Level Estimated
10:16 39.0833 -77.5000 30° Northeast 269 310 6,800  Level Potomac TRACON
10:16 39.1333 -77.4500 38° Northeast 281 323 9,400 1,620 Climbing Potomac TRACON
10:17 39.1858 -77.0501 90° East  Level Estimated
10:17 39.1500 -77.3500 78° East 335 386 10,000  Level Potomac TRACON
10:18 39.2452 -76.9473 74° East  Level Estimated
10:18 39.1333 -77.2333 100° East 353 406 12,400  Level Potomac TRACON
10:19 39.2860 -76.8764 90° East  Level Estimated
10:21 39.0639 -76.9792 109° East 371 427 16,800  Level Washington Center
10:22 39.0736 -76.8403 85° East 376 433 18,600 1,860 Climbing Washington Center
10:23 39.0917 -76.7014 80° East 381 438 20,600 1,800 Climbing Washington Center
10:24 39.1033 -76.5464 84° East 394 453 22,300 1,140 Climbing Washington Center
10:25 39.1272 -76.4103 77° East 405 466 23,000 300 Climbing Washington Center
10:26 39.1469 -76.2633 80° East 410 472 23,000  Level Washington Center
10:27 39.1708 -76.0842 80° East 415 478 23,000 420 Level Washington Center
10:28 39.1858 -75.9369 82° East 415 478 23,900 1,200 Climbing Washington Center
10:29 39.2486 -75.8061 58° Northeast 406 467 25,500 1,200 Climbing Washington Center
10:30 39.3364 -75.6936 45° Northeast 413 475 26,300 1,080 Climbing Washington Center
10:31 39.4239 -75.5808 45° Northeast 425 489 27,700 1,260 Climbing Washington Center
10:32 39.5156 -75.4650 44° Northeast 445 512 28,900 1,260 Climbing Washington Center
10:33 39.6069 -75.3436 46° Northeast 456 525 30,300 1,020 Climbing Washington Center
10:34 39.6964 -75.2219 46° Northeast 461 531 31,000 240 Climbing Washington Center
10:35 39.8303 -75.0311 48° Northeast 478 550 31,000  Level New York Center
10:36 39.9181 -74.9064 47° Northeast 473 544 31,000  Level New York Center
10:37 40.0058 -74.7761 49° Northeast 473 544 31,000  Level New York Center
10:38 40.0956 -74.6483 47° Northeast 473 544 31,000  Level New York Center
10:39 40.1792 -74.5172 50° Northeast 473 544 31,000  Level New York Center
10:40 40.2600 -74.3964 49° Northeast 473 544 31,000  Level New York Center
10:41 40.3519 -74.2517 50° Northeast 473 544 31,000  Level New York Center
10:43 40.4842 -74.0392 51° Northeast 481 554 31,000  Level Boston Center
10:44 40.5683 -73.9075 50° Northeast 476 548 31,000  Level Boston Center
10:45 40.6525 -73.7728 51° Northeast 477 549 31,000 -840 Level Boston Center
10:46 40.7542 -73.6125 50° Northeast 476 548 29,400 -1,920 Descending Boston Center
10:47 40.8381 -73.4775 51° Northeast 476 548 27,100 -2,220 Descending Boston Center
10:48 40.9222 -73.3500 49° Northeast 464 534 24,900 -1,560 Descending Boston Center
10:49 40.9989 -73.2367 48° Northeast 442 509 24,000 -780 Descending Boston Center
10:50 41.0789 -73.1192 48° Northeast 432 497 23,400 -540 Descending Boston Center
10:51 41.1547 -73.0008 50° Northeast 426 490 23,000 -240 Descending Boston Center
10:52 41.2092 -72.8600 63° Northeast 428 493 23,000  Level Boston Center
10:53 41.2611 -72.7197 64° Northeast 427 491 23,000  Level Boston Center
10:54 41.3183 -72.5631 64° Northeast 428 493 23,000  Level Boston Center
10:55 41.3706 -72.4197 64° Northeast 430 495 23,000 -720 Level Boston Center
10:56 41.4222 -72.2753 64° Northeast 432 497 21,500 -1,680 Descending Boston Center
10:57 41.4728 -72.1375 64° Northeast 416 479 19,500 -2,040 Descending Boston Center
10:58 41.5278 -71.9847 64° Northeast 404 465 17,400 -2,100 Descending Boston Center
10:59 41.5786 -71.8431 64° Northeast 393 452 15,300 -1,980 Descending Boston Center
11:00 41.6236 -71.7156 65° Northeast 382 440 13,500 -1,800 Descending Boston Center
11:01 41.6681 -71.5911 64° Northeast 375 432 11,700 -1,260 Descending Boston Center
11:02 41.7111 -71.4667 65° Northeast 348 400 11,000 -360 Descending Boston Center
11:03 41.7689 -71.3831 47° Northeast 315 362 11,000  Level Boston Center
11:04 41.8319 -71.3017 44° Northeast 315 362 11,000 -720 Level Boston Center
11:05 41.9047 -71.2247 38° Northeast 312 359 9,600 -1,380 Descending Boston Center
11:06 41.9842 -71.1892 18° North 303 349 8,200 -1,080 Descending Boston Center
11:07 42.0564 -71.1547 19° North 279 321 7,500 -780 Descending Boston Center
11:08 42.1128 -71.1261 21° North 220 253 6,700 -1,260 Descending Boston Center
11:09 42.1661 -71.1022 18° North 190 219 5,000 -1,740 Descending Boston Center
11:10 42.2167 -71.0833 15° North 176 203 3,100 -1,380 Descending KA90
11:11 42.2667 -71.0500 26° Northeast 171 197 2,100 -900 Descending KA90
11:12 42.3000 -71.0333 20° North 147 169 1,300 -840 Descending KA90
11:14 42.3500 -71.0167 14° North 140 161 400 -840 Descending KA90